Time;durP1;ratioP1;P1;durP2;ratioP2;P2;SDS_P1;SDS_P2;PMS_P1;PMS_P2;Temp;Humidity;BMP_temperature;BMP_pressure;BME280_temperature;BME280_humidity;BME280_pressure;Samples;Min_cycle;Max_cycle;Signal;HPM_P1;HPM_P2
2023/01/15 00:01:43;;;;;;;0.55;0.10;;;13.50;45.00;;;;;;4965046;28;87821;-74
2023/01/15 00:04:12;;;;;;;0.55;0.10;;;13.40;44.20;;;;;;4982630;28;88189;-76
2023/01/15 00:06:40;;;;;;;0.47;0.10;;;13.50;44.90;;;;;;4978064;28;88370;-77
2023/01/15 00:09:07;;;;;;;0.40;0.10;;;13.50;44.80;;;;;;4971913;28;88892;-77
2023/01/15 00:11:33;;;;;;;0.40;0.10;;;13.50;45.30;;;;;;4970245;28;88453;-76
2023/01/15 00:13:58;;;;;;;0.80;0.17;;;13.50;43.70;;;;;;4980064;28;88394;-76
2023/01/15 00:16:26;;;;;;;3.13;0.10;;;13.40;44.70;;;;;;4978132;28;87480;-77
2023/01/15 00:18:53;;;;;;;0.73;0.10;;;13.40;44.50;;;;;;4979489;28;88323;-76
2023/01/15 00:21:20;;;;;;;1.60;0.10;;;13.50;44.70;;;;;;4975132;28;88383;-77
2023/01/15 00:29:17;;;;;;;4.68;0.20;;;13.60;45.40;;;;;;4978257;28;88029;-75
2023/01/15 00:32:05;;;;;;;0.68;0.10;;;13.60;46.00;;;;;;4977200;28;88592;-75
2023/01/15 00:34:31;;;;;;;0.50;0.10;;;13.60;45.00;;;;;;4981327;28;88767;-76
2023/01/15 00:36:57;;;;;;;1.05;0.17;;;13.70;43.90;;;;;;4978768;28;87735;-76
2023/01/15 00:39:24;;;;;;;0.63;0.10;;;13.80;45.80;;;;;;4978109;28;87444;-77
2023/01/15 00:41:50;;;;;;;0.57;0.10;;;13.90;43.50;;;;;;4988387;28;87736;-76
2023/01/15 00:44:16;;;;;;;0.38;0.03;;;13.80;43.10;;;;;;4986477;28;87469;-75
2023/01/15 00:46:41;;;;;;;0.40;0.10;;;13.80;43.70;;;;;;4973232;28;87396;-76
2023/01/15 00:49:07;;;;;;;0.70;0.10;;;13.80;45.00;;;;;;4978612;28;86527;-76
2023/01/15 00:51:34;;;;;;;0.95;0.03;;;13.80;44.20;;;;;;4965999;28;89014;-75
2023/01/15 00:54:00;;;;;;;0.55;0.10;;;13.90;44.10;;;;;;4977698;28;87716;-75
2023/01/15 00:56:26;;;;;;;0.57;0.10;;;13.80;45.00;;;;;;4997132;28;88066;-76
2023/01/15 00:58:51;;;;;;;1.15;0.10;;;13.90;45.40;;;;;;4987233;28;87421;-74
2023/01/15 01:01:17;;;;;;;0.63;0.20;;;13.80;44.80;;;;;;4983762;28;87676;-75
2023/01/15 01:03:47;;;;;;;0.40;0.10;;;13.90;45.30;;;;;;4969243;28;87545;-75
2023/01/15 01:06:15;;;;;;;0.85;0.10;;;13.90;46.40;;;;;;4991566;28;87228;-74
2023/01/15 01:08:41;;;;;;;0.40;0.10;;;13.90;46.10;;;;;;4984758;28;87233;-74
2023/01/15 01:11:10;;;;;;;0.40;0.30;;;14.00;45.70;;;;;;4975254;28;87442;-73
2023/01/15 01:13:36;;;;;;;0.88;0.10;;;14.00;44.90;;;;;;4993177;28;87841;-72
2023/01/15 01:16:03;;;;;;;0.75;0.10;;;14.00;44.20;;;;;;4977162;28;87046;-75
2023/01/15 01:18:29;;;;;;;0.30;0.10;;;14.00;44.60;;;;;;4986902;28;87196;-76
2023/01/15 01:20:55;;;;;;;0.95;0.10;;;14.00;44.10;;;;;;4960470;28;89058;-76
2023/01/15 01:23:22;;;;;;;1.75;0.10;;;14.10;44.90;;;;;;4972069;28;87911;-76
2023/01/15 01:25:48;;;;;;;0.38;0.00;;;14.10;44.20;;;;;;4977479;28;87505;-76
2023/01/15 01:28:14;;;;;;;0.17;0.00;;;14.10;44.30;;;;;;4977918;28;87481;-76
2023/01/15 01:30:40;;;;;;;0.30;0.03;;;14.10;43.80;;;;;;4967775;28;88248;-75
2023/01/15 01:33:06;;;;;;;0.55;0.10;;;14.20;43.50;;;;;;4976320;28;87916;-75
2023/01/15 01:35:31;;;;;;;0.30;0.10;;;14.20;42.90;;;;;;4978676;28;87598;-76
2023/01/15 01:37:57;;;;;;;0.85;0.10;;;14.20;43.90;;;;;;4972097;28;86601;-77
2023/01/15 01:40:23;;;;;;;2.33;0.20;;;14.20;44.30;;;;;;4980087;28;87126;-75
2023/01/15 01:42:49;;;;;;;0.50;0.10;;;14.20;45.30;;;;;;4989345;28;87682;-74
2023/01/15 01:45:31;;;;;;;1.95;0.20;;;14.10;45.60;;;;;;4979415;28;88207;-74
2023/01/15 01:48:04;;;;;;;0.35;0.10;;;14.20;44.20;;;;;;4980617;28;87482;-72
2023/01/15 01:50:31;;;;;;;0.85;0.10;;;14.20;44.20;;;;;;4982195;28;88073;-77
2023/01/15 01:53:06;;;;;;;0.63;0.10;;;14.10;43.90;;;;;;4990530;28;87442;-76
2023/01/15 01:55:34;;;;;;;0.30;0.10;;;14.20;45.60;;;;;;4980806;28;88159;-75
2023/01/15 01:58:03;;;;;;;0.22;0.10;;;14.20;44.20;;;;;;4977674;28;87959;-76
2023/01/15 02:00:32;;;;;;;1.00;0.10;;;14.30;45.00;;;;;;4982445;28;87822;-76
2023/01/15 02:03:00;;;;;;;0.28;0.10;;;14.20;44.80;;;;;;4996356;28;86970;-76
2023/01/15 02:05:32;;;;;;;0.57;0.10;;;14.30;44.20;;;;;;4982641;28;87226;-76
2023/01/15 02:07:59;;;;;;;0.35;0.00;;;14.30;44.20;;;;;;4979404;28;87191;-77
2023/01/15 02:10:26;;;;;;;1.55;0.17;;;14.20;43.40;;;;;;4980399;28;89237;-76
2023/01/15 02:13:34;;;;;;;2.42;0.20;;;14.30;44.50;;;;;;4973394;28;88335;-75
2023/01/15 02:16:14;;;;;;;0.40;0.10;;;14.20;44.10;;;;;;4978033;28;87520;-75
2023/01/15 02:18:55;;;;;;;0.63;0.10;;;14.20;46.50;;;;;;4979780;28;87334;-76
2023/01/15 02:21:46;;;;;;;2.50;0.13;;;14.10;45.60;;;;;;4976630;28;88195;-76
2023/01/15 02:24:15;;;;;;;0.30;0.10;;;14.20;45.90;;;;;;4995055;28;87344;-76
2023/01/15 02:26:57;;;;;;;0.35;0.00;;;14.20;46.20;;;;;;4979069;28;88191;-76
2023/01/15 02:29:38;;;;;;;0.50;0.20;;;14.20;46.90;;;;;;4976547;28;86662;-77
2023/01/15 02:32:10;;;;;;;0.50;0.10;;;14.10;47.00;;;;;;4971298;28;87577;-77
2023/01/15 02:34:39;;;;;;;0.35;0.10;;;14.10;46.50;;;;;;4979500;28;88188;-76
2023/01/15 02:37:08;;;;;;;;;;;14.10;46.80;;;;;;4979488;28;88277;-78
2023/01/15 02:39:37;;;;;;;0.70;0.10;;;14.10;47.30;;;;;;4971056;28;88010;-77
2023/01/15 02:42:06;;;;;;;0.65;0.00;;;14.10;48.30;;;;;;4999636;28;90487;-75
2023/01/15 02:44:36;;;;;;;1.95;0.10;;;14.20;45.80;;;;;;4975932;28;87941;-75
2023/01/15 02:47:03;;;;;;;0.70;0.10;;;14.10;47.00;;;;;;4978964;28;87499;-74
2023/01/15 02:49:31;;;;;;;0.30;0.10;;;14.10;45.90;;;;;;4978778;28;87663;-74
2023/01/15 02:52:09;;;;;;;0.68;0.10;;;14.10;46.10;;;;;;4979598;28;88161;-74
2023/01/15 02:54:41;;;;;;;1.30;0.17;;;14.20;44.80;;;;;;4977927;28;87314;-74
2023/01/15 02:57:10;;;;;;;0.30;0.00;;;14.10;43.70;;;;;;4978932;28;87440;-75
2023/01/15 02:59:40;;;;;;;0.50;0.10;;;14.20;44.70;;;;;;4980033;28;87123;-75
2023/01/15 03:02:19;;;;;;;0.57;0.10;;;14.20;45.30;;;;;;4976559;28;88464;-75
2023/01/15 03:05:16;;;;;;;0.30;0.10;;;14.20;44.80;;;;;;4995468;28;87529;-75
2023/01/15 03:07:48;;;;;;;1.48;0.10;;;14.30;42.60;;;;;;4969016;28;87426;-75
2023/01/15 03:10:14;;;;;;;0.25;0.00;;;14.20;43.40;;;;;;4979617;28;87131;-75
2023/01/15 03:13:02;;;;;;;0.30;0.08;;;14.30;43.30;;;;;;4978444;28;88245;-75
2023/01/15 03:18:55;;;;;;;1.10;0.10;;;14.30;44.50;;;;;;4978082;28;87384;-75
2023/01/15 03:21:48;;;;;;;1.10;0.20;;;14.20;44.40;;;;;;4979634;28;86653;-74
2023/01/15 03:24:28;;;;;;;0.40;0.10;;;14.20;44.80;;;;;;4967085;28;89028;-75
2023/01/15 03:26:54;;;;;;;0.47;0.10;;;14.20;46.00;;;;;;4974207;28;87736;-75
2023/01/15 03:29:22;;;;;;;3.33;0.15;;;14.20;44.80;;;;;;4978482;28;88033;-74
2023/01/15 03:31:48;;;;;;;2.38;0.10;;;14.30;46.20;;;;;;4979054;28;87214;-75
2023/01/15 03:34:15;;;;;;;1.00;0.17;;;14.30;44.50;;;;;;4974933;28;87612;-75
2023/01/15 03:36:40;;;;;;;0.28;0.10;;;14.40;44.70;;;;;;4970371;28;87531;-75
2023/01/15 03:39:06;;;;;;;0.40;0.10;;;14.40;46.10;;;;;;4979061;28;87096;-75
2023/01/15 03:42:11;;;;;;;0.40;0.10;;;14.60;46.60;;;;;;4979821;28;87569;-76
2023/01/15 03:45:00;;;;;;;1.05;0.10;;;14.60;47.80;;;;;;4972600;28;88608;-75
2023/01/15 03:47:35;;;;;;;1.05;0.20;;;14.60;45.40;;;;;;4978569;28;88103;-75
2023/01/15 03:50:22;;;;;;;0.38;0.10;;;14.50;47.10;;;;;;4979245;28;87454;-75
2023/01/15 03:53:17;;;;;;;1.17;0.10;;;14.40;47.10;;;;;;4963332;28;87376;-74
2023/01/15 03:56:02;;;;;;;0.95;0.20;;;14.40;48.70;;;;;;4972836;28;88184;-75
2023/01/15 03:59:08;;;;;;;1.33;0.30;;;14.20;55.50;;;;;;4977779;28;88181;-76
2023/01/15 04:01:39;;;;;;;1.30;0.45;;;13.60;57.30;;;;;;4977360;28;87117;-75
2023/01/15 04:04:06;;;;;;;1.13;0.20;;;13.10;59.80;;;;;;4980871;28;87519;-75
2023/01/15 04:06:35;;;;;;;1.10;0.10;;;12.80;61.00;;;;;;4978190;28;88163;-75
2023/01/15 04:09:07;;;;;;;0.70;0.17;;;12.50;62.30;;;;;;4974283;28;88225;-75
2023/01/15 04:11:33;;;;;;;1.33;0.28;;;12.40;64.10;;;;;;4976424;28;87502;-75
2023/01/15 04:13:58;;;;;;;2.97;0.40;;;12.20;64.00;;;;;;4980016;28;86656;-75
2023/01/15 04:16:30;;;;;;;1.35;0.30;;;12.20;64.50;;;;;;4974951;28;91047;-74
2023/01/15 04:18:56;;;;;;;2.20;0.30;;;12.10;65.20;;;;;;4978330;28;87768;-75
2023/01/15 04:21:22;;;;;;;0.90;0.20;;;12.00;65.10;;;;;;4977786;28;88198;-74
2023/01/15 04:23:47;;;;;;;1.60;0.30;;;11.90;66.00;;;;;;4980832;28;87625;-74
2023/01/15 04:26:14;;;;;;;1.23;0.20;;;11.80;67.10;;;;;;4980766;28;87641;-74
2023/01/15 04:28:40;;;;;;;1.42;0.30;;;11.80;67.70;;;;;;4968981;28;88292;-74
2023/01/15 04:31:06;;;;;;;1.08;0.20;;;11.70;68.30;;;;;;4977662;28;87385;-75
2023/01/15 04:33:32;;;;;;;1.85;0.40;;;11.50;70.50;;;;;;4978741;28;87353;-75
2023/01/15 04:36:02;;;;;;;0.80;0.20;;;11.40;71.10;;;;;;4988641;28;88231;-74
2023/01/15 04:38:28;;;;;;;2.78;0.20;;;11.40;70.40;;;;;;4996281;28;87849;-75
2023/01/15 04:46:24;;;;;;;1.13;0.20;;;11.30;71.50;;;;;;4975220;28;88280;-75
2023/01/15 04:48:50;;;;;;;0.65;0.10;;;11.30;71.70;;;;;;4977438;28;88703;-76
2023/01/15 04:51:16;;;;;;;1.70;0.20;;;11.20;71.70;;;;;;4978746;28;87367;-74
2023/01/15 04:53:42;;;;;;;0.93;0.20;;;11.10;71.20;;;;;;4995694;28;87277;-74
2023/01/15 04:56:08;;;;;;;1.48;0.13;;;11.10;72.80;;;;;;4980638;28;87630;-75
2023/01/15 04:58:34;;;;;;;1.85;0.20;;;11.10;72.90;;;;;;4977483;28;88082;-75
2023/01/15 05:01:00;;;;;;;1.13;0.10;;;11.20;74.20;;;;;;4968763;28;87215;-74
2023/01/15 05:03:27;;;;;;;0.45;0.08;;;11.20;70.60;;;;;;4978823;28;86411;-75
2023/01/15 05:05:53;;;;;;;0.50;0.10;;;11.40;66.60;;;;;;4976845;28;87550;-75
2023/01/15 05:08:19;;;;;;;1.35;0.10;;;11.40;74.60;;;;;;4991646;28;87374;-75
2023/01/15 05:10:44;;;;;;;2.08;0.20;;;11.20;74.50;;;;;;4995626;28;89742;-76
2023/01/15 05:13:10;;;;;;;2.05;0.20;;;11.10;76.20;;;;;;4995147;28;87349;-75
2023/01/15 05:15:37;;;;;;;2.33;0.60;;;11.00;76.80;;;;;;4977405;28;88739;-74
2023/01/15 05:18:03;;;;;;;1.30;0.20;;;10.90;78.20;;;;;;4965700;28;89066;-75
2023/01/15 05:20:29;;;;;;;0.88;0.20;;;10.80;78.30;;;;;;4977993;28;87345;-76
2023/01/15 05:22:55;;;;;;;1.40;0.28;;;10.80;78.90;;;;;;4977303;28;87574;-76
2023/01/15 05:25:22;;;;;;;0.90;0.20;;;10.70;79.20;;;;;;4974683;28;87359;-76
2023/01/15 05:27:47;;;;;;;0.98;0.20;;;10.70;79.40;;;;;;4985226;28;87293;-76
2023/01/15 05:30:13;;;;;;;1.70;0.17;;;10.60;79.10;;;;;;4980894;28;87168;-75
2023/01/15 05:32:39;;;;;;;1.20;0.20;;;10.60;80.60;;;;;;4977533;28;87451;-74
2023/01/15 05:35:05;;;;;;;1.10;0.20;;;10.60;80.30;;;;;;4974441;28;88485;-75
2023/01/15 05:37:30;;;;;;;2.00;0.20;;;10.40;81.70;;;;;;4975568;28;90183;-75
2023/01/15 05:39:56;;;;;;;1.65;0.20;;;10.40;81.90;;;;;;4982138;28;87159;-75
2023/01/15 05:42:22;;;;;;;2.60;0.10;;;10.50;83.50;;;;;;4977249;28;87662;-74
2023/01/15 05:44:47;;;;;;;2.45;0.20;;;10.50;83.00;;;;;;4976083;28;87549;-74
2023/01/15 05:47:13;;;;;;;1.75;0.20;;;10.40;83.10;;;;;;4975864;28;88571;-73
2023/01/15 05:49:39;;;;;;;1.85;0.30;;;10.30;84.00;;;;;;4975547;28;87688;-75
2023/01/15 05:52:04;;;;;;;3.58;0.40;;;10.20;84.40;;;;;;4969937;28;86792;-74
2023/01/15 05:54:33;;;;;;;1.98;0.20;;;10.10;85.80;;;;;;4974814;28;88220;-75
2023/01/15 05:57:00;;;;;;;2.53;0.28;;;10.10;85.50;;;;;;4977000;28;87832;-74
2023/01/15 05:59:27;;;;;;;3.33;0.35;;;10.10;86.90;;;;;;4977188;28;88322;-73
2023/01/15 06:01:53;;;;;;;2.70;0.30;;;10.10;86.10;;;;;;4976077;28;88034;-74
2023/01/15 06:04:20;;;;;;;5.80;0.30;;;10.10;85.20;;;;;;4986028;28;87705;-75
2023/01/15 06:06:47;;;;;;;2.53;0.30;;;10.10;85.70;;;;;;4976236;28;87878;-74
2023/01/15 06:09:13;;;;;;;2.45;0.15;;;10.10;85.40;;;;;;4965921;28;87320;-75
2023/01/15 06:11:39;;;;;;;2.00;0.20;;;10.20;83.60;;;;;;4977153;28;87383;-74
2023/01/15 06:14:05;;;;;;;1.90;0.30;;;10.20;82.70;;;;;;4976147;28;88167;-74
2023/01/15 06:16:31;;;;;;;1.70;0.30;;;10.30;83.00;;;;;;4972294;28;88092;-74
2023/01/15 06:19:03;;;;;;;4.00;0.40;;;10.30;83.00;;;;;;4970357;28;87458;-74
2023/01/15 06:21:29;;;;;;;2.40;0.43;;;10.30;83.30;;;;;;4966955;28;87115;-76
2023/01/15 06:23:55;;;;;;;2.40;0.30;;;10.30;82.40;;;;;;4974899;28;89501;-75
2023/01/15 06:26:21;;;;;;;3.22;0.30;;;10.40;82.70;;;;;;4978040;28;89400;-74
2023/01/15 06:28:46;;;;;;;2.20;0.30;;;10.40;83.90;;;;;;4978763;28;87536;-74
2023/01/15 06:31:15;;;;;;;1.90;0.40;;;10.40;83.50;;;;;;4964888;28;89566;-73
2023/01/15 06:33:41;;;;;;;2.10;0.40;;;10.40;84.00;;;;;;4963135;28;87650;-74
2023/01/15 06:36:12;;;;;;;2.35;0.30;;;10.40;84.60;;;;;;4974035;28;87834;-74
2023/01/15 06:38:38;;;;;;;2.90;0.65;;;10.40;85.50;;;;;;4967548;28;89213;-77
2023/01/15 06:47:19;;;;;;;1.80;0.30;;;10.40;85.70;;;;;;4970196;28;87752;-74
2023/01/15 06:49:33;;;;;;;4.60;1.02;;;10.30;87.30;;;;;;4968247;28;88748;-74
2023/01/15 06:51:59;;;;;;;7.03;0.65;;;10.20;88.40;;;;;;4969052;28;87720;-74
2023/01/15 06:54:26;;;;;;;6.57;0.20;;;10.20;83.70;;;;;;4971513;28;87712;-74
2023/01/15 06:56:51;;;;;;;0.50;0.10;;;10.40;71.30;;;;;;4976779;28;87075;-74
2023/01/15 06:59:18;;;;;;;2.47;0.10;;;10.90;64.60;;;;;;4977720;28;87127;-74
2023/01/15 07:01:44;;;;;;;1.15;0.10;;;11.20;64.20;;;;;;4965296;28;87157;-75
2023/01/15 07:04:10;;;;;;;0.20;0.00;;;11.50;64.10;;;;;;4966215;28;87921;-75
2023/01/15 07:06:35;;;;;;;0.35;0.10;;;11.60;61.90;;;;;;4968272;28;87211;-74
2023/01/15 07:09:01;;;;;;;0.40;0.10;;;11.80;61.00;;;;;;4968061;28;87622;-74
2023/01/15 07:11:27;;;;;;;0.90;0.10;;;11.80;59.90;;;;;;4967665;28;88158;-75
2023/01/15 07:14:04;;;;;;;0.43;0.10;;;11.90;59.60;;;;;;4967831;28;88663;-74
2023/01/15 07:16:36;;;;;;;0.38;0.10;;;11.90;58.60;;;;;;4965175;28;89555;-75
2023/01/15 07:19:03;;;;;;;0.65;0.00;;;12.00;57.10;;;;;;4971257;28;88655;-74
2023/01/15 07:21:29;;;;;;;0.85;0.10;;;12.10;57.40;;;;;;4967424;28;87777;-74
2023/01/15 07:23:58;;;;;;;0.80;0.10;;;12.20;57.90;;;;;;4969650;28;88263;-75
2023/01/15 07:26:24;;;;;;;0.17;0.00;;;12.40;57.60;;;;;;4972880;28;87818;-74
2023/01/15 07:28:50;;;;;;;0.60;0.10;;;12.40;58.80;;;;;;4973308;28;87153;-74
2023/01/15 07:31:15;;;;;;;0.43;0.00;;;12.50;56.20;;;;;;4965870;28;87027;-75
2023/01/15 07:33:41;;;;;;;0.30;0.08;;;12.50;55.60;;;;;;4963278;28;89439;-75
2023/01/15 07:36:07;;;;;;;0.95;0.00;;;12.50;56.60;;;;;;4968529;28;88919;-75
2023/01/15 07:38:33;;;;;;;2.03;0.00;;;12.50;58.00;;;;;;4970269;28;89728;-75
2023/01/15 07:51:57;;;;;;;0.80;0.17;;;12.50;56.10;;;;;;4970483;28;87452;-75
2023/01/15 07:54:23;;;;;;;2.60;0.20;;;12.50;55.40;;;;;;4972386;28;88205;-74
2023/01/15 07:56:50;;;;;;;0.60;0.10;;;12.60;55.20;;;;;;4972295;28;88060;-75
2023/01/15 07:59:15;;;;;;;0.77;0.22;;;12.50;54.80;;;;;;4975117;28;87726;-73
2023/01/15 08:01:41;;;;;;;0.45;0.10;;;12.60;53.00;;;;;;4965479;28;87054;-74
2023/01/15 08:04:08;;;;;;;0.68;0.25;;;12.60;55.30;;;;;;4965830;28;89284;-73
2023/01/15 08:06:34;;;;;;;0.50;0.00;;;12.60;55.50;;;;;;4965513;28;93554;-75
2023/01/15 08:09:00;;;;;;;0.35;0.00;;;12.70;52.70;;;;;;4970335;28;87537;-76
2023/01/15 08:16:54;;;;;;;1.95;0.10;;;12.80;51.90;;;;;;4976195;28;87486;-75
2023/01/15 08:19:20;;;;;;;0.88;0.13;;;12.90;51.90;;;;;;4972208;28;87495;-74
2023/01/15 08:21:46;;;;;;;0.60;0.10;;;13.00;52.10;;;;;;4965554;28;88095;-74
2023/01/15 08:24:12;;;;;;;0.60;0.10;;;13.00;52.00;;;;;;4970593;28;89094;-75
2023/01/15 08:26:38;;;;;;;0.50;0.10;;;13.10;51.20;;;;;;4971341;28;87401;-75
2023/01/15 08:29:04;;;;;;;0.38;0.10;;;13.10;52.30;;;;;;4965526;28;88379;-75
2023/01/15 08:31:29;;;;;;;0.98;0.20;;;13.10;51.20;;;;;;4966528;28;87143;-75
2023/01/15 08:33:55;;;;;;;1.15;0.10;;;13.10;51.10;;;;;;4967546;28;88980;-75
2023/01/15 08:36:21;;;;;;;0.68;0.10;;;13.20;51.50;;;;;;4965877;28;87302;-76
2023/01/15 08:38:49;;;;;;;0.55;0.10;;;13.30;51.60;;;;;;4974530;28;87255;-74
2023/01/15 08:41:15;;;;;;;0.73;0.00;;;13.30;50.00;;;;;;4965394;28;88975;-75
2023/01/15 08:43:41;;;;;;;2.20;0.10;;;13.40;49.30;;;;;;4972649;28;88026;-76
2023/01/15 08:46:08;;;;;;;0.82;0.17;;;13.50;49.10;;;;;;4969574;28;87898;-75
2023/01/15 08:48:34;;;;;;;0.98;0.13;;;13.50;50.00;;;;;;4975791;28;87546;-75
2023/01/15 08:51:05;;;;;;;2.60;0.10;;;13.50;50.20;;;;;;4973457;28;87620;-75
2023/01/15 08:53:31;;;;;;;1.23;0.22;;;13.50;53.30;;;;;;4967078;28;88981;-74
2023/01/15 08:55:57;;;;;;;0.80;0.10;;;13.60;48.90;;;;;;4968124;28;88371;-75
2023/01/15 08:58:22;;;;;;;4.35;0.28;;;13.70;49.30;;;;;;4975208;28;88884;-75
2023/01/15 09:00:48;;;;;;;0.50;0.10;;;13.70;50.40;;;;;;4973051;28;88826;-75
2023/01/15 09:03:14;;;;;;;1.35;0.20;;;13.90;48.60;;;;;;4968682;28;88249;-75
2023/01/15 09:05:40;;;;;;;2.05;0.20;;;14.00;50.40;;;;;;4971955;28;87754;-75
2023/01/15 09:08:06;;;;;;;1.65;0.28;;;14.10;52.70;;;;;;4975155;28;87037;-75
2023/01/15 09:10:33;;;;;;;1.65;0.20;;;14.20;53.90;;;;;;4975668;28;87304;-75
2023/01/15 09:13:02;;;;;;;0.90;0.10;;;14.20;50.00;;;;;;4963846;28;88215;-75
2023/01/15 09:15:28;;;;;;;35.58;17.40;;;14.10;50.00;;;;;;4964419;28;89550;-76
2023/01/15 09:17:55;;;;;;;1.58;0.20;;;14.00;53.50;;;;;;4977767;28;89080;-74
2023/01/15 09:20:21;;;;;;;1.25;0.20;;;13.80;62.20;;;;;;4985444;28;87685;-75
2023/01/15 09:22:47;;;;;;;0.80;0.20;;;13.50;68.00;;;;;;4978374;28;88330;-75
2023/01/15 09:25:15;;;;;;;0.70;0.20;;;13.20;69.40;;;;;;4978999;28;87922;-73
2023/01/15 09:27:41;;;;;;;0.82;0.15;;;13.00;71.70;;;;;;4984174;28;87602;-74
2023/01/15 09:30:13;;;;;;;1.10;0.30;;;12.80;72.90;;;;;;4976551;28;87195;-74
2023/01/15 09:32:38;;;;;;;1.25;0.28;;;12.60;74.00;;;;;;4973769;28;87116;-75
2023/01/15 09:35:04;;;;;;;2.20;0.25;;;12.50;75.10;;;;;;4972758;28;87957;-75
2023/01/15 09:37:30;;;;;;;1.73;0.60;;;12.30;76.50;;;;;;4975177;28;87551;-75
2023/01/15 09:39:56;;;;;;;0.80;0.20;;;12.20;77.80;;;;;;4976799;28;87323;-75
2023/01/15 09:42:24;;;;;;;1.55;0.10;;;12.10;78.00;;;;;;4975569;28;88549;-75
2023/01/15 09:45:09;;;;;;;0.50;0.10;;;11.90;77.90;;;;;;4978511;28;88888;-75
2023/01/15 09:47:46;;;;;;;0.50;0.10;;;11.70;78.00;;;;;;4987523;28;87367;-75
2023/01/15 09:50:44;;;;;;;2.03;0.10;;;11.50;78.40;;;;;;4980702;28;88543;-75
2023/01/15 09:53:35;;;;;;;0.68;0.10;;;11.30;78.80;;;;;;4969388;28;87628;-75
2023/01/15 09:56:03;;;;;;;0.80;0.10;;;11.20;78.00;;;;;;4977372;28;87492;-75
2023/01/15 09:58:37;;;;;;;0.32;0.00;;;11.10;76.90;;;;;;4976377;28;87161;-75
2023/01/15 10:01:06;;;;;;;0.35;0.00;;;11.10;76.70;;;;;;4980212;28;86933;-75
2023/01/15 10:03:55;;;;;;;0.45;0.00;;;11.00;77.00;;;;;;4980743;28;88015;-75
2023/01/15 10:06:25;;;;;;;1.00;0.10;;;10.90;76.10;;;;;;4974639;28;87839;-74
2023/01/15 10:08:53;;;;;;;;;;;10.70;76.50;;;;;;4977915;28;88054;-75
2023/01/15 10:14:44;;;;;;;0.20;0.00;;;10.60;77.60;;;;;;4972283;28;87306;-75
2023/01/15 10:17:27;;;;;;;0.43;0.08;;;10.30;79.10;;;;;;4975717;28;87779;-75
2023/01/15 10:19:53;;;;;;;0.90;0.00;;;10.30;80.10;;;;;;4973314;28;87190;-74
2023/01/15 10:22:40;;;;;;;0.10;0.00;;;10.10;80.40;;;;;;4981930;28;87311;-74
2023/01/15 10:25:14;;;;;;;0.30;0.10;;;9.90;80.00;;;;;;4975493;28;87747;-75
2023/01/15 10:27:46;;;;;;;0.90;0.00;;;9.80;80.10;;;;;;4981412;28;87316;-75
2023/01/15 10:30:22;;;;;;;0.30;0.00;;;9.70;81.20;;;;;;4965025;28;87713;-75
2023/01/15 10:32:57;;;;;;;0.43;0.10;;;9.60;81.70;;;;;;4971604;28;87426;-74
2023/01/15 10:35:50;;;;;;;0.38;0.00;;;9.50;82.70;;;;;;4965026;28;90344;-75
2023/01/15 10:38:44;;;;;;;0.20;0.00;;;9.30;83.30;;;;;;4974138;28;88312;-75
2023/01/15 10:41:30;;;;;;;0.10;0.00;;;9.20;83.50;;;;;;4981410;28;87600;-75
2023/01/15 10:44:15;;;;;;;0.10;0.00;;;9.10;83.10;;;;;;4996007;28;87440;-75
2023/01/15 10:46:47;;;;;;;0.20;0.00;;;9.00;83.00;;;;;;4978360;28;87404;-75
2023/01/15 10:49:15;;;;;;;0.57;0.00;;;9.00;83.70;;;;;;4980208;28;88969;-75
2023/01/15 10:51:52;;;;;;;0.45;0.00;;;8.90;83.70;;;;;;4982948;28;88174;-75
2023/01/15 10:54:38;;;;;;;0.10;0.00;;;8.80;83.80;;;;;;4980239;28;86581;-75
2023/01/15 10:57:22;;;;;;;2.28;0.50;;;8.70;83.90;;;;;;4974218;28;87361;-75
2023/01/15 10:59:57;;;;;;;1.27;0.10;;;8.50;84.70;;;;;;4981298;28;87366;-75
2023/01/15 11:02:29;;;;;;;0.82;0.10;;;8.40;84.90;;;;;;4980615;28;88403;-75
2023/01/15 11:04:54;;;;;;;0.40;0.10;;;8.40;85.30;;;;;;4990689;28;87622;-75
2023/01/15 11:07:48;;;;;;;0.40;0.10;;;8.40;85.60;;;;;;4982177;28;88183;-75
2023/01/15 11:10:19;;;;;;;0.50;0.10;;;8.40;85.60;;;;;;4974318;28;88436;-75
2023/01/15 11:21:17;;;;;;;0.20;0.00;;;8.50;85.10;;;;;;4983422;28;86677;-75
2023/01/15 11:23:43;;;;;;;1.17;0.00;;;8.50;84.90;;;;;;4980599;28;87375;-75
2023/01/15 11:26:15;;;;;;;0.45;0.08;;;8.50;84.20;;;;;;4979183;28;87433;-74
2023/01/15 11:28:42;;;;;;;0.88;0.00;;;8.50;83.00;;;;;;4980803;28;89261;-74
2023/01/15 11:31:10;;;;;;;2.22;0.08;;;8.50;83.40;;;;;;4976890;28;88763;-74
2023/01/15 11:33:36;;;;;;;1.48;0.00;;;8.60;83.30;;;;;;4980926;28;87366;-74
2023/01/15 11:36:06;;;;;;;0.10;0.00;;;8.70;82.90;;;;;;4977827;28;87496;-75
2023/01/15 11:38:46;;;;;;;0.30;0.00;;;8.70;80.50;;;;;;4970376;28;89522;-75
2023/01/15 11:50:42;;;;;;;1.02;0.00;;;8.70;81.80;;;;;;4967147;28;87569;-75
2023/01/15 11:52:45;;;;;;;0.70;0.10;;;8.60;81.40;;;;;;4963962;28;87440;-75
2023/01/15 11:55:16;;;;;;;0.50;0.10;;;8.60;80.40;;;;;;4966895;28;88375;-74
2023/01/15 11:57:42;;;;;;;1.38;0.10;;;8.70;81.10;;;;;;4970564;28;87091;-74
2023/01/15 12:00:22;;;;;;;0.40;0.10;;;8.60;79.20;;;;;;4965329;28;88544;-74
2023/01/15 12:02:51;;;;;;;0.25;0.03;;;8.60;79.90;;;;;;4967430;28;88070;-74
2023/01/15 12:05:21;;;;;;;0.52;0.10;;;8.60;80.20;;;;;;4961676;28;89184;-74
2023/01/15 12:07:54;;;;;;;0.55;0.10;;;8.60;81.10;;;;;;4971508;28;87512;-73
2023/01/15 12:13:47;;;;;;;0.17;0.00;;;8.50;80.60;;;;;;4986207;28;87523;-73
2023/01/15 12:16:41;;;;;;;0.40;0.00;;;8.40;81.30;;;;;;4988945;28;88008;-73
2023/01/15 12:19:40;;;;;;;0.32;0.00;;;8.40;82.20;;;;;;4976873;28;87623;-73
2023/01/15 12:22:11;;;;;;;0.55;0.10;;;8.50;82.00;;;;;;4975871;28;89896;-73
2023/01/15 12:25:08;;;;;;;0.30;0.10;;;8.40;82.70;;;;;;4987271;28;88289;-73
2023/01/15 12:27:55;;;;;;;0.10;0.00;;;8.30;82.70;;;;;;4980514;28;87110;-75
2023/01/15 12:30:31;;;;;;;0.30;0.00;;;8.20;82.40;;;;;;4976865;28;87360;-73
2023/01/15 12:33:17;;;;;;;0.43;0.10;;;8.30;81.10;;;;;;4983596;28;88593;-73
2023/01/15 12:36:12;;;;;;;0.50;0.40;;;8.30;81.30;;;;;;4975205;28;87915;-72
2023/01/15 12:39:02;;;;;;;1.77;0.10;;;8.40;81.30;;;;;;4976154;28;87554;-74
2023/01/15 12:44:59;;;;;;;0.57;0.32;;;8.10;80.90;;;;;;4972861;28;87359;-76
2023/01/15 12:47:43;;;;;;;;;;;8.00;81.40;;;;;;4992142;28;87197;-76
2023/01/15 12:50:45;;;;;;;0.57;0.00;;;8.00;81.70;;;;;;4989457;28;88536;-76
2023/01/15 12:53:23;;;;;;;0.30;0.00;;;7.80;82.30;;;;;;4976135;28;87562;-77
2023/01/15 12:55:58;;;;;;;0.20;0.00;;;7.70;81.50;;;;;;4976655;28;87585;-77
2023/01/15 12:58:38;;;;;;;0.63;0.00;;;7.70;81.80;;;;;;4965850;28;87608;-77
2023/01/15 13:01:19;;;;;;;0.70;0.03;;;7.60;82.20;;;;;;4969649;28;87929;-75
2023/01/15 13:04:23;;;;;;;0.60;0.10;;;7.60;82.70;;;;;;4967490;28;87091;-76
2023/01/15 13:07:27;;;;;;;4.00;0.68;;;7.50;82.40;;;;;;4974297;28;88958;-76
2023/01/15 13:10:01;;;;;;;2.25;0.30;;;7.50;83.20;;;;;;4964580;28;88718;-76
2023/01/15 13:12:28;;;;;;;0.77;0.10;;;7.40;82.20;;;;;;4971461;28;87509;-75
2023/01/15 13:14:54;;;;;;;0.65;0.25;;;7.50;84.20;;;;;;4963295;28;87485;-75
2023/01/15 13:17:22;;;;;;;1.30;0.40;;;7.50;84.10;;;;;;4960244;28;88962;-76
2023/01/15 13:20:14;;;;;;;1.65;0.32;;;7.50;82.90;;;;;;4978177;28;89375;-75
2023/01/15 13:23:06;;;;;;;0.95;0.20;;;7.60;83.10;;;;;;4974783;28;88845;-75
2023/01/15 13:25:32;;;;;;;0.77;0.00;;;7.70;83.80;;;;;;4972301;28;87511;-76
2023/01/15 13:28:20;;;;;;;0.30;0.10;;;7.70;81.10;;;;;;4987326;28;87779;-75
2023/01/15 13:30:54;;;;;;;1.25;0.30;;;7.80;81.90;;;;;;4984418;28;87862;-75
2023/01/15 13:33:36;;;;;;;1.65;0.60;;;7.80;81.90;;;;;;4976718;28;87782;-75
2023/01/15 13:36:10;;;;;;;1.10;0.10;;;7.80;81.40;;;;;;4986553;28;86329;-75
2023/01/15 13:38:40;;;;;;;1.08;0.32;;;7.80;82.60;;;;;;4981130;28;88434;-75
2023/01/15 13:41:07;;;;;;;1.33;0.38;;;7.80;82.30;;;;;;4978491;28;87401;-75
2023/01/15 13:43:40;;;;;;;1.23;0.22;;;7.90;81.30;;;;;;4981528;28;88252;-75
2023/01/15 13:46:10;;;;;;;1.13;0.20;;;7.80;80.80;;;;;;4980265;28;87499;-75
2023/01/15 13:48:44;;;;;;;2.42;0.57;;;7.80;81.20;;;;;;4975711;28;88969;-75
2023/01/15 13:51:25;;;;;;;1.58;0.30;;;7.70;82.30;;;;;;4987072;28;87148;-74
2023/01/15 13:53:52;;;;;;;3.10;0.22;;;7.80;82.20;;;;;;4974004;28;87341;-74
2023/01/15 13:56:34;;;;;;;0.52;0.00;;;7.70;81.50;;;;;;4980323;28;87609;-74
2023/01/15 13:59:25;;;;;;;0.75;0.10;;;7.70;80.70;;;;;;4981141;28;87462;-75
2023/01/15 14:01:51;;;;;;;1.65;0.10;;;7.70;80.60;;;;;;4979550;28;87699;-75
2023/01/15 14:04:16;;;;;;;2.08;0.10;;;7.70;80.90;;;;;;4970603;28;88011;-75
2023/01/15 14:06:51;;;;;;;0.85;0.10;;;7.50;83.50;;;;;;4969586;28;87158;-75
2023/01/15 14:09:23;;;;;;;0.95;0.10;;;7.40;79.60;;;;;;4969493;28;89284;-75
2023/01/15 14:12:20;;;;;;;0.17;0.00;;;7.30;80.40;;;;;;4977493;28;88506;-76
2023/01/15 14:15:27;;;;;;;0.93;0.10;;;7.20;79.60;;;;;;4982266;28;87553;-76
2023/01/15 14:18:07;;;;;;;0.45;0.05;;;7.20;77.80;;;;;;4966678;28;88586;-76